sensor_id;sensor_type;location;lat;lon;timestamp;pressure;altitude;pressure_sealevel;temperature;humidity
68873;BME280;55907;50.806;12.882;2023-07-22T00:02:52;971.1;;;14.0;95.7
68873;BME280;55907;50.806;12.882;2023-07-22T00:06:02;971.1;;;14.0;95.6
68873;BME280;55907;50.806;12.882;2023-07-22T00:08:54;971.1;;;14.0;95.6
68873;BME280;55907;50.806;12.882;2023-07-22T00:11:56;971.2;;;14.0;95.5
68873;BME280;55907;50.806;12.882;2023-07-22T00:14:57;971.2;;;14.1;95.2
68873;BME280;55907;50.806;12.882;2023-07-22T00:17:59;971.2;;;14.1;95.1
68873;BME280;55907;50.806;12.882;2023-07-22T00:21:00;971.2;;;14.2;94.9
68873;BME280;55907;50.806;12.882;2023-07-22T00:24:02;971.2;;;14.2;94.4
68873;BME280;55907;50.806;12.882;2023-07-22T00:27:03;971.2;;;14.2;94.2
68873;BME280;55907;50.806;12.882;2023-07-22T00:30:06;971.2;;;14.3;93.9
68873;BME280;55907;50.806;12.882;2023-07-22T00:33:07;971.2;;;14.3;93.8
68873;BME280;55907;50.806;12.882;2023-07-22T00:36:08;971.2;;;14.2;94.1
68873;BME280;55907;50.806;12.882;2023-07-22T00:39:09;971.2;;;14.3;93.8
68873;BME280;55907;50.806;12.882;2023-07-22T00:42:11;971.2;;;14.3;93.4
68873;BME280;55907;50.806;12.882;2023-07-22T00:45:12;971.2;;;14.3;93.5
68873;BME280;55907;50.806;12.882;2023-07-22T00:48:14;971.2;;;14.4;93.3
68873;BME280;55907;50.806;12.882;2023-07-22T00:51:15;971.3;;;14.4;92.3
68873;BME280;55907;50.806;12.882;2023-07-22T00:54:17;971.3;;;14.5;92.2
68873;BME280;55907;50.806;12.882;2023-07-22T00:57:18;971.3;;;14.5;92.1
68873;BME280;55907;50.806;12.882;2023-07-22T01:00:19;971.3;;;14.6;91.7
68873;BME280;55907;50.806;12.882;2023-07-22T01:03:21;971.3;;;14.6;92.3
68873;BME280;55907;50.806;12.882;2023-07-22T01:06:23;971.4;;;14.6;92.1
68873;BME280;55907;50.806;12.882;2023-07-22T01:09:24;971.4;;;14.6;91.9
68873;BME280;55907;50.806;12.882;2023-07-22T01:12:25;971.4;;;14.6;92.0
68873;BME280;55907;50.806;12.882;2023-07-22T01:15:27;971.4;;;14.6;92.2
68873;BME280;55907;50.806;12.882;2023-07-22T01:18:28;971.5;;;14.6;92.0
68873;BME280;55907;50.806;12.882;2023-07-22T01:21:31;971.4;;;14.5;92.4
68873;BME280;55907;50.806;12.882;2023-07-22T01:24:31;971.4;;;14.5;92.9
68873;BME280;55907;50.806;12.882;2023-07-22T01:27:33;971.4;;;14.5;92.5
68873;BME280;55907;50.806;12.882;2023-07-22T01:30:34;971.3;;;14.5;92.6
68873;BME280;55907;50.806;12.882;2023-07-22T01:33:36;971.4;;;14.5;92.7
68873;BME280;55907;50.806;12.882;2023-07-22T01:36:37;971.3;;;14.4;93.0
68873;BME280;55907;50.806;12.882;2023-07-22T01:39:38;971.4;;;14.4;92.9
68873;BME280;55907;50.806;12.882;2023-07-22T01:42:40;971.3;;;14.4;93.0
68873;BME280;55907;50.806;12.882;2023-07-22T01:45:41;971.4;;;14.4;93.3
68873;BME280;55907;50.806;12.882;2023-07-22T01:48:43;971.4;;;14.4;93.3
68873;BME280;55907;50.806;12.882;2023-07-22T01:51:44;971.4;;;14.4;92.6
68873;BME280;55907;50.806;12.882;2023-07-22T01:54:46;971.4;;;14.3;92.5
68873;BME280;55907;50.806;12.882;2023-07-22T01:57:47;971.4;;;14.3;93.0
68873;BME280;55907;50.806;12.882;2023-07-22T02:00:49;971.4;;;14.3;92.5
68873;BME280;55907;50.806;12.882;2023-07-22T02:03:50;971.5;;;14.3;93.0
68873;BME280;55907;50.806;12.882;2023-07-22T02:06:52;971.6;;;14.3;92.6
68873;BME280;55907;50.806;12.882;2023-07-22T02:09:53;971.5;;;14.3;93.2
68873;BME280;55907;50.806;12.882;2023-07-22T02:12:55;971.5;;;14.3;93.1
68873;BME280;55907;50.806;12.882;2023-07-22T02:15:56;971.6;;;14.3;92.8
68873;BME280;55907;50.806;12.882;2023-07-22T02:18:58;971.6;;;14.4;92.1
68873;BME280;55907;50.806;12.882;2023-07-22T02:21:59;971.6;;;14.4;92.3
68873;BME280;55907;50.806;12.882;2023-07-22T02:25:01;971.6;;;14.4;91.7
68873;BME280;55907;50.806;12.882;2023-07-22T02:28:02;971.6;;;14.3;92.2
68873;BME280;55907;50.806;12.882;2023-07-22T02:31:03;971.7;;;14.3;92.6
68873;BME280;55907;50.806;12.882;2023-07-22T02:34:05;971.7;;;14.3;92.1
68873;BME280;55907;50.806;12.882;2023-07-22T02:37:06;971.7;;;14.3;92.0
68873;BME280;55907;50.806;12.882;2023-07-22T02:40:08;971.8;;;14.2;92.0
68873;BME280;55907;50.806;12.882;2023-07-22T02:43:09;971.8;;;14.2;92.7
68873;BME280;55907;50.806;12.882;2023-07-22T02:46:11;971.8;;;14.1;93.3
68873;BME280;55907;50.806;12.882;2023-07-22T02:49:12;971.8;;;14.1;93.7
68873;BME280;55907;50.806;12.882;2023-07-22T02:52:14;971.9;;;14.0;94.0
68873;BME280;55907;50.806;12.882;2023-07-22T02:55:17;971.9;;;13.9;94.6
68873;BME280;55907;50.806;12.882;2023-07-22T02:58:17;971.9;;;13.9;94.8
68873;BME280;55907;50.806;12.882;2023-07-22T03:01:18;971.9;;;13.9;94.9
68873;BME280;55907;50.806;12.882;2023-07-22T03:04:20;971.8;;;13.8;95.3
68873;BME280;55907;50.806;12.882;2023-07-22T03:07:21;971.8;;;13.8;95.4
68873;BME280;55907;50.806;12.882;2023-07-22T03:10:23;971.9;;;13.8;95.0
68873;BME280;55907;50.806;12.882;2023-07-22T03:13:24;971.9;;;13.7;95.4
68873;BME280;55907;50.806;12.882;2023-07-22T03:16:25;971.9;;;13.7;95.3
68873;BME280;55907;50.806;12.882;2023-07-22T03:19:27;971.9;;;13.6;96.0
68873;BME280;55907;50.806;12.882;2023-07-22T03:22:28;971.9;;;13.6;95.8
68873;BME280;55907;50.806;12.882;2023-07-22T03:25:30;971.9;;;13.6;96.1
68873;BME280;55907;50.806;12.882;2023-07-22T03:28:31;971.9;;;13.6;95.8
68873;BME280;55907;50.806;12.882;2023-07-22T03:31:33;971.9;;;13.6;96.0
68873;BME280;55907;50.806;12.882;2023-07-22T03:34:35;972.0;;;13.6;96.2
68873;BME280;55907;50.806;12.882;2023-07-22T03:37:36;971.9;;;13.6;95.6
68873;BME280;55907;50.806;12.882;2023-07-22T03:40:37;971.9;;;13.7;95.0
68873;BME280;55907;50.806;12.882;2023-07-22T03:43:39;972.0;;;13.7;95.3
68873;BME280;55907;50.806;12.882;2023-07-22T03:46:40;972.1;;;13.8;94.8
68873;BME280;55907;50.806;12.882;2023-07-22T03:49:42;972.1;;;13.8;94.5
68873;BME280;55907;50.806;12.882;2023-07-22T03:52:43;972.1;;;13.8;94.3
68873;BME280;55907;50.806;12.882;2023-07-22T03:55:45;972.1;;;13.9;92.8
68873;BME280;55907;50.806;12.882;2023-07-22T03:58:46;972.1;;;13.9;93.1
68873;BME280;55907;50.806;12.882;2023-07-22T04:01:47;972.2;;;14.0;93.1
68873;BME280;55907;50.806;12.882;2023-07-22T04:04:50;972.2;;;14.0;93.2
68873;BME280;55907;50.806;12.882;2023-07-22T04:07:50;972.1;;;14.1;92.8
68873;BME280;55907;50.806;12.882;2023-07-22T04:10:52;972.1;;;14.1;92.2
68873;BME280;55907;50.806;12.882;2023-07-22T04:13:53;972.1;;;14.2;91.9
68873;BME280;55907;50.806;12.882;2023-07-22T04:16:55;972.1;;;14.3;91.6
68873;BME280;55907;50.806;12.882;2023-07-22T04:19:56;972.1;;;14.3;91.5
68873;BME280;55907;50.806;12.882;2023-07-22T04:22:58;972.1;;;14.4;90.5
68873;BME280;55907;50.806;12.882;2023-07-22T04:26:02;972.1;;;14.4;90.5
68873;BME280;55907;50.806;12.882;2023-07-22T04:29:01;972.1;;;14.5;89.6
68873;BME280;55907;50.806;12.882;2023-07-22T04:32:02;972.1;;;14.5;89.5
68873;BME280;55907;50.806;12.882;2023-07-22T04:35:04;972.2;;;14.6;89.5
68873;BME280;55907;50.806;12.882;2023-07-22T04:38:05;972.3;;;14.7;88.8
68873;BME280;55907;50.806;12.882;2023-07-22T04:41:06;972.3;;;14.8;88.2
68873;BME280;55907;50.806;12.882;2023-07-22T04:44:08;972.3;;;14.9;87.9
68873;BME280;55907;50.806;12.882;2023-07-22T04:47:09;972.3;;;15.0;87.4
68873;BME280;55907;50.806;12.882;2023-07-22T04:50:11;972.3;;;15.5;85.3
68873;BME280;55907;50.806;12.882;2023-07-22T04:53:12;972.3;;;16.0;82.3
68873;BME280;55907;50.806;12.882;2023-07-22T04:56:14;972.4;;;16.5;80.6
68873;BME280;55907;50.806;12.882;2023-07-22T04:59:15;972.4;;;17.4;76.7
68873;BME280;55907;50.806;12.882;2023-07-22T05:02:17;972.5;;;18.2;71.6
68873;BME280;55907;50.806;12.882;2023-07-22T05:05:18;972.5;;;19.0;68.3
68873;BME280;55907;50.806;12.882;2023-07-22T05:08:20;972.6;;;19.6;65.6
68873;BME280;55907;50.806;12.882;2023-07-22T05:11:21;972.5;;;19.9;63.5
68873;BME280;55907;50.806;12.882;2023-07-22T05:14:23;972.6;;;20.3;63.0
68873;BME280;55907;50.806;12.882;2023-07-22T05:17:24;972.6;;;20.4;61.3
68873;BME280;55907;50.806;12.882;2023-07-22T05:20:25;972.6;;;19.7;63.2
68873;BME280;55907;50.806;12.882;2023-07-22T05:23:27;972.7;;;19.1;65.9
68873;BME280;55907;50.806;12.882;2023-07-22T05:26:28;972.6;;;18.7;67.7
68873;BME280;55907;50.806;12.882;2023-07-22T05:29:29;972.6;;;18.1;68.5
68873;BME280;55907;50.806;12.882;2023-07-22T05:32:31;972.7;;;17.8;70.2
68873;BME280;55907;50.806;12.882;2023-07-22T05:35:32;972.7;;;17.6;71.2
68873;BME280;55907;50.806;12.882;2023-07-22T05:38:34;972.7;;;17.7;71.7
68873;BME280;55907;50.806;12.882;2023-07-22T05:41:35;972.8;;;17.9;71.2
68873;BME280;55907;50.806;12.882;2023-07-22T05:44:36;972.8;;;17.9;70.6
68873;BME280;55907;50.806;12.882;2023-07-22T05:47:38;972.9;;;17.7;71.1
68873;BME280;55907;50.806;12.882;2023-07-22T05:50:39;972.8;;;17.8;71.2
68873;BME280;55907;50.806;12.882;2023-07-22T05:53:41;972.9;;;17.9;70.5
68873;BME280;55907;50.806;12.882;2023-07-22T05:56:42;972.9;;;17.9;70.6
68873;BME280;55907;50.806;12.882;2023-07-22T05:59:44;972.9;;;17.7;71.4
68873;BME280;55907;50.806;12.882;2023-07-22T06:02:45;972.9;;;17.6;70.5
68873;BME280;55907;50.806;12.882;2023-07-22T06:05:46;973.0;;;17.4;70.0
68873;BME280;55907;50.806;12.882;2023-07-22T06:08:48;973.0;;;17.4;71.0
68873;BME280;55907;50.806;12.882;2023-07-22T06:11:49;973.0;;;17.5;71.5
68873;BME280;55907;50.806;12.882;2023-07-22T06:14:51;973.0;;;17.7;70.1
68873;BME280;55907;50.806;12.882;2023-07-22T06:17:52;973.0;;;17.7;69.5
68873;BME280;55907;50.806;12.882;2023-07-22T06:20:54;973.0;;;17.6;68.6
68873;BME280;55907;50.806;12.882;2023-07-22T06:23:55;973.0;;;17.5;68.8
68873;BME280;55907;50.806;12.882;2023-07-22T06:26:56;973.0;;;17.4;69.2
68873;BME280;55907;50.806;12.882;2023-07-22T06:29:58;973.1;;;17.4;69.1
68873;BME280;55907;50.806;12.882;2023-07-22T06:32:59;973.0;;;17.5;68.8
68873;BME280;55907;50.806;12.882;2023-07-22T06:36:01;973.1;;;17.5;68.2
68873;BME280;55907;50.806;12.882;2023-07-22T06:39:02;973.0;;;17.6;66.9
68873;BME280;55907;50.806;12.882;2023-07-22T06:42:04;973.1;;;17.7;67.2
68873;BME280;55907;50.806;12.882;2023-07-22T06:45:06;973.1;;;17.8;66.4
68873;BME280;55907;50.806;12.882;2023-07-22T06:48:06;973.1;;;17.6;64.1
68873;BME280;55907;50.806;12.882;2023-07-22T06:51:08;973.1;;;17.8;65.9
68873;BME280;55907;50.806;12.882;2023-07-22T06:54:09;973.1;;;17.9;65.0
68873;BME280;55907;50.806;12.882;2023-07-22T06:57:11;973.1;;;18.0;63.6
68873;BME280;55907;50.806;12.882;2023-07-22T07:00:12;973.2;;;18.3;63.8
68873;BME280;55907;50.806;12.882;2023-07-22T07:03:13;973.2;;;18.5;62.4
68873;BME280;55907;50.806;12.882;2023-07-22T07:06:15;973.3;;;18.6;61.6
68873;BME280;55907;50.806;12.882;2023-07-22T07:09:16;973.3;;;18.6;59.7
68873;BME280;55907;50.806;12.882;2023-07-22T07:12:18;973.4;;;19.1;60.0
68873;BME280;55907;50.806;12.882;2023-07-22T07:15:19;973.4;;;19.7;58.3
68873;BME280;55907;50.806;12.882;2023-07-22T07:18:20;973.4;;;20.0;54.9
68873;BME280;55907;50.806;12.882;2023-07-22T07:21:22;973.4;;;19.9;56.3
68873;BME280;55907;50.806;12.882;2023-07-22T07:24:24;973.5;;;19.8;57.5
68873;BME280;55907;50.806;12.882;2023-07-22T07:27:25;973.5;;;19.5;57.7
68873;BME280;55907;50.806;12.882;2023-07-22T07:30:26;973.5;;;19.2;57.4
68873;BME280;55907;50.806;12.882;2023-07-22T07:33:28;973.5;;;19.0;57.7
68873;BME280;55907;50.806;12.882;2023-07-22T07:36:29;973.6;;;19.0;58.0
68873;BME280;55907;50.806;12.882;2023-07-22T07:39:30;973.6;;;18.9;57.3
68873;BME280;55907;50.806;12.882;2023-07-22T07:42:32;973.7;;;19.0;57.1
68873;BME280;55907;50.806;12.882;2023-07-22T07:45:33;973.6;;;18.9;56.9
68873;BME280;55907;50.806;12.882;2023-07-22T07:48:34;973.6;;;19.0;57.5
68873;BME280;55907;50.806;12.882;2023-07-22T07:51:36;973.7;;;19.0;57.1
68873;BME280;55907;50.806;12.882;2023-07-22T07:54:37;973.8;;;19.2;56.4
68873;BME280;55907;50.806;12.882;2023-07-22T07:57:39;973.7;;;19.3;55.3
68873;BME280;55907;50.806;12.882;2023-07-22T08:00:40;973.7;;;19.3;55.0
68873;BME280;55907;50.806;12.882;2023-07-22T08:03:42;973.7;;;19.3;54.2
68873;BME280;55907;50.806;12.882;2023-07-22T08:06:43;973.8;;;19.5;55.4
68873;BME280;55907;50.806;12.882;2023-07-22T08:09:46;973.8;;;19.8;54.2
68873;BME280;55907;50.806;12.882;2023-07-22T08:12:46;973.8;;;19.7;54.8
68873;BME280;55907;50.806;12.882;2023-07-22T08:15:47;973.8;;;19.6;55.0
68873;BME280;55907;50.806;12.882;2023-07-22T08:18:48;973.7;;;19.4;55.7
68873;BME280;55907;50.806;12.882;2023-07-22T08:21:50;973.7;;;19.4;55.0
68873;BME280;55907;50.806;12.882;2023-07-22T08:24:51;973.7;;;19.6;54.6
68873;BME280;55907;50.806;12.882;2023-07-22T08:27:53;973.7;;;19.8;54.1
68873;BME280;55907;50.806;12.882;2023-07-22T08:30:55;973.7;;;19.8;53.2
68873;BME280;55907;50.806;12.882;2023-07-22T08:33:55;973.7;;;19.8;53.0
68873;BME280;55907;50.806;12.882;2023-07-22T08:36:57;973.7;;;20.0;52.4
68873;BME280;55907;50.806;12.882;2023-07-22T08:39:58;973.8;;;20.1;50.9
68873;BME280;55907;50.806;12.882;2023-07-22T08:43:00;973.7;;;20.3;47.5
68873;BME280;55907;50.806;12.882;2023-07-22T08:46:01;973.7;;;20.6;47.6
68873;BME280;55907;50.806;12.882;2023-07-22T08:49:05;973.8;;;21.0;47.7
68873;BME280;55907;50.806;12.882;2023-07-22T08:52:04;973.8;;;21.5;46.4
68873;BME280;55907;50.806;12.882;2023-07-22T08:55:06;973.8;;;22.5;44.5
68873;BME280;55907;50.806;12.882;2023-07-22T08:58:07;973.8;;;23.2;43.6
68873;BME280;55907;50.806;12.882;2023-07-22T09:01:08;973.8;;;23.8;40.1
68873;BME280;55907;50.806;12.882;2023-07-22T09:04:09;973.7;;;24.7;38.3
68873;BME280;55907;50.806;12.882;2023-07-22T09:07:11;973.7;;;25.8;39.7
68873;BME280;55907;50.806;12.882;2023-07-22T09:10:12;973.7;;;26.7;34.1
68873;BME280;55907;50.806;12.882;2023-07-22T09:13:13;973.8;;;27.6;33.6
68873;BME280;55907;50.806;12.882;2023-07-22T09:16:15;973.7;;;26.9;32.3
68873;BME280;55907;50.806;12.882;2023-07-22T09:19:16;973.7;;;27.1;33.6
68873;BME280;55907;50.806;12.882;2023-07-22T09:22:17;973.7;;;27.0;33.2
68873;BME280;55907;50.806;12.882;2023-07-22T09:25:20;973.6;;;27.4;32.7
68873;BME280;55907;50.806;12.882;2023-07-22T09:28:20;973.6;;;27.6;32.3
68873;BME280;55907;50.806;12.882;2023-07-22T09:31:22;973.7;;;27.5;32.9
68873;BME280;55907;50.806;12.882;2023-07-22T09:34:23;973.5;;;26.4;32.8
68873;BME280;55907;50.806;12.882;2023-07-22T09:37:36;973.6;;;25.7;34.2
68873;BME280;55907;50.806;12.882;2023-07-22T09:40:27;973.7;;;25.2;34.5
68873;BME280;55907;50.806;12.882;2023-07-22T09:43:26;973.6;;;24.3;35.7
68873;BME280;55907;50.806;12.882;2023-07-22T09:46:31;973.6;;;24.0;36.4
68873;BME280;55907;50.806;12.882;2023-07-22T09:49:29;973.6;;;24.2;35.8
68873;BME280;55907;50.806;12.882;2023-07-22T09:52:31;973.6;;;23.8;36.6
68873;BME280;55907;50.806;12.882;2023-07-22T09:55:33;973.6;;;24.3;36.1
68873;BME280;55907;50.806;12.882;2023-07-22T09:58:33;973.5;;;24.8;34.0
68873;BME280;55907;50.806;12.882;2023-07-22T10:01:38;973.5;;;24.4;34.1
68873;BME280;55907;50.806;12.882;2023-07-22T10:04:37;973.5;;;25.0;33.7
68873;BME280;55907;50.806;12.882;2023-07-22T10:07:37;973.4;;;25.4;31.9
68873;BME280;55907;50.806;12.882;2023-07-22T10:10:39;973.4;;;25.6;31.5
68873;BME280;55907;50.806;12.882;2023-07-22T10:13:40;973.4;;;26.0;32.2
68873;BME280;55907;50.806;12.882;2023-07-22T10:16:42;973.4;;;26.2;32.1
68873;BME280;55907;50.806;12.882;2023-07-22T10:19:43;973.5;;;26.1;30.8
68873;BME280;55907;50.806;12.882;2023-07-22T10:22:45;973.4;;;26.1;31.7
68873;BME280;55907;50.806;12.882;2023-07-22T10:25:46;973.3;;;26.2;32.8
68873;BME280;55907;50.806;12.882;2023-07-22T10:28:47;973.4;;;26.4;31.8
68873;BME280;55907;50.806;12.882;2023-07-22T10:31:48;973.4;;;26.3;31.7
68873;BME280;55907;50.806;12.882;2023-07-22T10:34:49;973.4;;;26.2;31.3
68873;BME280;55907;50.806;12.882;2023-07-22T10:37:52;973.3;;;26.4;30.6
68873;BME280;55907;50.806;12.882;2023-07-22T10:40:53;973.4;;;26.0;32.3
68873;BME280;55907;50.806;12.882;2023-07-22T10:43:54;973.3;;;25.7;33.1
68873;BME280;55907;50.806;12.882;2023-07-22T10:46:57;973.3;;;25.5;33.0
68873;BME280;55907;50.806;12.882;2023-07-22T10:50:05;973.4;;;25.2;33.6
68873;BME280;55907;50.806;12.882;2023-07-22T10:53:00;973.4;;;25.1;33.5
68873;BME280;55907;50.806;12.882;2023-07-22T10:56:03;973.4;;;24.6;34.3
68873;BME280;55907;50.806;12.882;2023-07-22T10:59:00;973.3;;;24.1;34.0
68873;BME280;55907;50.806;12.882;2023-07-22T11:02:07;973.3;;;24.2;35.1
68873;BME280;55907;50.806;12.882;2023-07-22T11:05:03;973.3;;;24.4;33.4
68873;BME280;55907;50.806;12.882;2023-07-22T11:08:04;973.3;;;24.9;33.8
68873;BME280;55907;50.806;12.882;2023-07-22T11:11:06;973.2;;;25.4;32.2
68873;BME280;55907;50.806;12.882;2023-07-22T11:14:15;973.2;;;26.0;32.3
68873;BME280;55907;50.806;12.882;2023-07-22T11:17:08;973.2;;;26.3;30.6
68873;BME280;55907;50.806;12.882;2023-07-22T11:20:10;973.2;;;26.3;31.5
68873;BME280;55907;50.806;12.882;2023-07-22T11:23:11;973.1;;;25.7;30.6
68873;BME280;55907;50.806;12.882;2023-07-22T11:26:12;973.2;;;25.2;32.7
68873;BME280;55907;50.806;12.882;2023-07-22T11:29:14;973.2;;;25.0;33.1
68873;BME280;55907;50.806;12.882;2023-07-22T11:32:16;973.2;;;24.6;32.7
68873;BME280;55907;50.806;12.882;2023-07-22T11:35:16;973.1;;;24.6;32.8
68873;BME280;55907;50.806;12.882;2023-07-22T11:38:17;973.1;;;24.5;33.2
68873;BME280;55907;50.806;12.882;2023-07-22T11:41:19;973.1;;;24.4;32.7
68873;BME280;55907;50.806;12.882;2023-07-22T11:44:22;973.1;;;24.3;32.9
68873;BME280;55907;50.806;12.882;2023-07-22T11:47:28;973.1;;;24.1;33.3
68873;BME280;55907;50.806;12.882;2023-07-22T11:50:30;973.1;;;24.4;33.9
68873;BME280;55907;50.806;12.882;2023-07-22T11:53:26;973.1;;;25.2;32.7
68873;BME280;55907;50.806;12.882;2023-07-22T11:56:27;973.1;;;25.3;32.4
68873;BME280;55907;50.806;12.882;2023-07-22T11:59:35;973.0;;;25.2;32.4
68873;BME280;55907;50.806;12.882;2023-07-22T12:02:28;973.0;;;25.2;34.4
68873;BME280;55907;50.806;12.882;2023-07-22T12:05:29;973.0;;;25.0;33.7
68873;BME280;55907;50.806;12.882;2023-07-22T12:08:31;973.0;;;24.7;33.1
68873;BME280;55907;50.806;12.882;2023-07-22T12:11:33;973.0;;;24.5;33.2
68873;BME280;55907;50.806;12.882;2023-07-22T12:14:34;973.0;;;24.3;33.7
68873;BME280;55907;50.806;12.882;2023-07-22T12:17:46;973.0;;;24.0;33.6
68873;BME280;55907;50.806;12.882;2023-07-22T12:20:36;973.0;;;23.9;34.6
68873;BME280;55907;50.806;12.882;2023-07-22T12:23:38;973.0;;;23.6;35.2
68873;BME280;55907;50.806;12.882;2023-07-22T12:26:39;973.0;;;23.2;35.6
68873;BME280;55907;50.806;12.882;2023-07-22T12:29:40;973.1;;;23.3;36.7
68873;BME280;55907;50.806;12.882;2023-07-22T12:32:42;973.0;;;23.6;36.1
68873;BME280;55907;50.806;12.882;2023-07-22T12:35:43;972.9;;;23.9;35.3
68873;BME280;55907;50.806;12.882;2023-07-22T12:38:44;972.9;;;23.8;35.4
68873;BME280;55907;50.806;12.882;2023-07-22T12:41:46;972.9;;;23.8;36.0
68873;BME280;55907;50.806;12.882;2023-07-22T12:44:47;972.9;;;23.6;34.4
68873;BME280;55907;50.806;12.882;2023-07-22T12:47:48;972.8;;;23.6;34.4
68873;BME280;55907;50.806;12.882;2023-07-22T12:50:50;972.8;;;23.8;34.7
68873;BME280;55907;50.806;12.882;2023-07-22T12:53:51;972.8;;;23.9;34.8
68873;BME280;55907;50.806;12.882;2023-07-22T12:56:52;972.8;;;23.9;34.4
68873;BME280;55907;50.806;12.882;2023-07-22T12:59:54;972.8;;;23.7;35.1
68873;BME280;55907;50.806;12.882;2023-07-22T13:02:55;972.8;;;23.8;35.8
68873;BME280;55907;50.806;12.882;2023-07-22T13:05:57;972.8;;;24.0;36.0
68873;BME280;55907;50.806;12.882;2023-07-22T13:08:58;972.7;;;24.3;36.2
68873;BME280;55907;50.806;12.882;2023-07-22T13:11:59;972.7;;;24.5;35.1
68873;BME280;55907;50.806;12.882;2023-07-22T13:15:01;972.7;;;24.2;34.5
68873;BME280;55907;50.806;12.882;2023-07-22T13:18:02;972.7;;;24.1;35.3
68873;BME280;55907;50.806;12.882;2023-07-22T13:21:03;972.7;;;23.9;34.2
68873;BME280;55907;50.806;12.882;2023-07-22T13:24:05;972.6;;;23.8;34.5
68873;BME280;55907;50.806;12.882;2023-07-22T13:27:06;972.6;;;24.0;34.6
68873;BME280;55907;50.806;12.882;2023-07-22T13:30:08;972.6;;;24.2;35.7
68873;BME280;55907;50.806;12.882;2023-07-22T13:33:09;972.6;;;24.5;35.8
68873;BME280;55907;50.806;12.882;2023-07-22T13:36:10;972.5;;;24.4;34.6
68873;BME280;55907;50.806;12.882;2023-07-22T13:39:11;972.5;;;24.1;34.2
68873;BME280;55907;50.806;12.882;2023-07-22T13:42:13;972.5;;;24.0;33.8
68873;BME280;55907;50.806;12.882;2023-07-22T13:45:14;972.4;;;23.9;34.2
68873;BME280;55907;50.806;12.882;2023-07-22T13:48:15;972.4;;;23.8;33.6
68873;BME280;55907;50.806;12.882;2023-07-22T13:51:17;972.4;;;24.1;34.7
68873;BME280;55907;50.806;12.882;2023-07-22T13:54:18;972.4;;;24.3;34.9
68873;BME280;55907;50.806;12.882;2023-07-22T13:57:20;972.4;;;24.3;35.0
68873;BME280;55907;50.806;12.882;2023-07-22T14:00:21;972.4;;;24.2;34.8
68873;BME280;55907;50.806;12.882;2023-07-22T14:03:22;972.4;;;24.0;34.6
68873;BME280;55907;50.806;12.882;2023-07-22T14:06:24;972.4;;;24.1;35.8
68873;BME280;55907;50.806;12.882;2023-07-22T14:09:25;972.4;;;24.0;35.4
68873;BME280;55907;50.806;12.882;2023-07-22T14:12:26;972.3;;;23.9;34.5
68873;BME280;55907;50.806;12.882;2023-07-22T14:15:28;972.3;;;23.9;33.7
68873;BME280;55907;50.806;12.882;2023-07-22T14:18:29;972.4;;;24.0;34.8
68873;BME280;55907;50.806;12.882;2023-07-22T14:21:30;972.4;;;24.0;34.6
68873;BME280;55907;50.806;12.882;2023-07-22T14:24:32;972.4;;;24.1;34.4
68873;BME280;55907;50.806;12.882;2023-07-22T14:27:33;972.3;;;24.1;33.3
68873;BME280;55907;50.806;12.882;2023-07-22T14:30:35;972.3;;;24.0;33.9
68873;BME280;55907;50.806;12.882;2023-07-22T14:33:36;972.3;;;23.9;33.8
68873;BME280;55907;50.806;12.882;2023-07-22T14:36:37;972.2;;;23.8;34.1
68873;BME280;55907;50.806;12.882;2023-07-22T14:39:39;972.2;;;23.7;34.9
68873;BME280;55907;50.806;12.882;2023-07-22T14:42:40;972.2;;;23.8;33.7
68873;BME280;55907;50.806;12.882;2023-07-22T14:45:41;972.1;;;24.2;33.7
68873;BME280;55907;50.806;12.882;2023-07-22T14:48:43;972.1;;;24.3;34.0
68873;BME280;55907;50.806;12.882;2023-07-22T14:51:44;972.1;;;24.1;34.7
68873;BME280;55907;50.806;12.882;2023-07-22T14:54:46;972.1;;;24.0;34.8
68873;BME280;55907;50.806;12.882;2023-07-22T14:57:47;972.1;;;23.8;35.5
68873;BME280;55907;50.806;12.882;2023-07-22T15:00:48;972.1;;;23.4;34.9
68873;BME280;55907;50.806;12.882;2023-07-22T15:03:50;972.1;;;23.3;35.7
68873;BME280;55907;50.806;12.882;2023-07-22T15:06:51;972.2;;;23.2;37.2
68873;BME280;55907;50.806;12.882;2023-07-22T15:09:52;972.1;;;23.2;36.5
68873;BME280;55907;50.806;12.882;2023-07-22T15:12:54;972.1;;;23.6;36.7
68873;BME280;55907;50.806;12.882;2023-07-22T15:15:56;972.2;;;23.8;35.7
68873;BME280;55907;50.806;12.882;2023-07-22T15:18:57;972.1;;;24.0;35.9
68873;BME280;55907;50.806;12.882;2023-07-22T15:21:58;972.1;;;24.1;35.6
68873;BME280;55907;50.806;12.882;2023-07-22T15:24:59;972.1;;;23.8;35.7
68873;BME280;55907;50.806;12.882;2023-07-22T15:28:01;972.1;;;23.6;36.7
68873;BME280;55907;50.806;12.882;2023-07-22T15:31:02;972.0;;;23.5;36.9
68873;BME280;55907;50.806;12.882;2023-07-22T15:34:03;972.0;;;23.3;37.4
68873;BME280;55907;50.806;12.882;2023-07-22T15:37:05;971.9;;;23.2;37.2
68873;BME280;55907;50.806;12.882;2023-07-22T15:40:07;971.9;;;23.2;37.6
68873;BME280;55907;50.806;12.882;2023-07-22T15:43:08;971.9;;;23.3;37.8
68873;BME280;55907;50.806;12.882;2023-07-22T15:46:09;971.9;;;23.4;37.5
68873;BME280;55907;50.806;12.882;2023-07-22T15:49:10;971.9;;;23.3;37.2
68873;BME280;55907;50.806;12.882;2023-07-22T15:55:13;971.9;;;23.8;37.4
68873;BME280;55907;50.806;12.882;2023-07-22T15:58:14;971.9;;;23.8;37.9
68873;BME280;55907;50.806;12.882;2023-07-22T16:01:16;971.9;;;23.7;38.1
68873;BME280;55907;50.806;12.882;2023-07-22T16:04:17;971.8;;;23.6;38.5
68873;BME280;55907;50.806;12.882;2023-07-22T16:07:19;971.9;;;23.5;39.1
68873;BME280;55907;50.806;12.882;2023-07-22T16:10:21;971.9;;;23.4;38.3
68873;BME280;55907;50.806;12.882;2023-07-22T16:13:21;971.8;;;23.3;38.3
68873;BME280;55907;50.806;12.882;2023-07-22T16:16:23;971.8;;;23.4;38.9
68873;BME280;55907;50.806;12.882;2023-07-22T16:19:24;971.8;;;23.3;38.6
68873;BME280;55907;50.806;12.882;2023-07-22T16:22:25;971.8;;;23.0;38.7
68873;BME280;55907;50.806;12.882;2023-07-22T16:25:27;971.8;;;23.0;39.2
68873;BME280;55907;50.806;12.882;2023-07-22T16:28:28;971.8;;;23.0;39.1
68873;BME280;55907;50.806;12.882;2023-07-22T16:31:30;971.8;;;22.8;38.9
68873;BME280;55907;50.806;12.882;2023-07-22T16:34:31;971.8;;;22.7;39.3
68873;BME280;55907;50.806;12.882;2023-07-22T16:37:32;971.8;;;22.5;39.4
68873;BME280;55907;50.806;12.882;2023-07-22T16:40:34;971.8;;;22.4;39.7
68873;BME280;55907;50.806;12.882;2023-07-22T16:43:35;971.7;;;22.3;40.1
68873;BME280;55907;50.806;12.882;2023-07-22T16:46:36;971.7;;;22.1;40.6
68873;BME280;55907;50.806;12.882;2023-07-22T16:49:38;971.7;;;22.1;41.0
68873;BME280;55907;50.806;12.882;2023-07-22T16:52:39;971.7;;;22.1;41.4
68873;BME280;55907;50.806;12.882;2023-07-22T16:55:41;971.7;;;22.0;41.2
68873;BME280;55907;50.806;12.882;2023-07-22T16:58:42;971.6;;;21.9;41.9